Time;durP1;ratioP1;P1;durP2;ratioP2;P2;SDS_P1;SDS_P2;PMS_P1;PMS_P2;Temp;Humidity;BMP_temperature;BMP_pressure;BME280_temperature;BME280_humidity;BME280_pressure;Samples;Min_cycle;Max_cycle;Signal;HPM_P1;HPM_P2
2021/09/27 00:00:46;;;;;;;10.77;6.18;;;17.80;95.60;;;;;;5011387;28;20108;-75
2021/09/27 00:03:12;;;;;;;10.80;6.13;;;17.80;95.60;;;;;;5011239;28;20053;-75
2021/09/27 00:05:39;;;;;;;9.50;5.80;;;17.80;95.60;;;;;;5011330;28;20053;-75
2021/09/27 00:08:05;;;;;;;10.43;6.07;;;17.80;95.70;;;;;;5012135;28;20038;-75
2021/09/27 00:10:45;;;;;;;10.10;6.15;;;17.70;95.70;;;;;;5012139;28;20029;-75
2021/09/27 00:13:12;;;;;;;11.40;6.28;;;17.70;95.70;;;;;;5012015;28;20030;-76
2021/09/27 00:15:44;;;;;;;10.93;5.95;;;17.70;95.70;;;;;;5011509;28;20038;-75
2021/09/27 00:18:12;;;;;;;11.18;6.20;;;17.70;95.70;;;;;;5012155;28;20014;-75
2021/09/27 00:20:41;;;;;;;10.23;6.03;;;17.70;95.70;;;;;;5013338;28;20099;-74
2021/09/27 00:23:07;;;;;;;10.90;6.15;;;17.60;95.70;;;;;;5016181;28;20034;-75
2021/09/27 00:25:33;;;;;;;8.30;5.45;;;17.60;95.70;;;;;;5015941;28;20024;-74
2021/09/27 00:27:59;;;;;;;13.13;6.40;;;17.60;95.70;;;;;;5013887;28;20109;-74
2021/09/27 00:30:25;;;;;;;10.05;5.75;;;17.60;95.70;;;;;;5014524;28;20037;-74
2021/09/27 00:32:52;;;;;;;11.23;6.03;;;17.60;95.70;;;;;;5014891;28;20028;-74
2021/09/27 00:35:25;;;;;;;10.65;5.97;;;17.60;95.70;;;;;;5015499;28;20058;-74
2021/09/27 00:37:51;;;;;;;9.98;5.90;;;17.60;95.70;;;;;;5029998;28;20056;-74
2021/09/27 00:40:22;;;;;;;10.93;6.10;;;17.60;95.70;;;;;;5014235;28;20124;-73
2021/09/27 00:42:48;;;;;;;10.18;5.72;;;17.50;95.70;;;;;;5029824;28;20014;-73
2021/09/27 00:45:16;;;;;;;11.38;6.35;;;17.50;95.70;;;;;;5015750;28;20021;-75
2021/09/27 00:47:42;;;;;;;12.57;6.75;;;17.50;95.70;;;;;;5016030;28;20018;-75
2021/09/27 00:50:10;;;;;;;11.10;6.07;;;17.50;95.70;;;;;;5015461;28;20382;-75
2021/09/27 00:52:37;;;;;;;11.10;6.18;;;17.40;95.70;;;;;;5015503;28;20093;-75
2021/09/27 00:55:07;;;;;;;10.52;6.40;;;17.50;95.70;;;;;;5015096;28;20033;-76
2021/09/27 00:57:33;;;;;;;8.30;5.45;;;17.40;95.70;;;;;;5015336;28;20026;-76
2021/09/27 00:59:59;;;;;;;8.38;5.13;;;17.40;95.70;;;;;;5014343;28;20044;-73
2021/09/27 01:02:25;;;;;;;10.68;5.95;;;17.40;95.70;;;;;;5015223;28;20109;-73
2021/09/27 01:04:52;;;;;;;9.40;5.65;;;17.40;95.70;;;;;;5014606;28;20030;-73
2021/09/27 01:07:37;;;;;;;10.20;5.95;;;17.40;95.70;;;;;;5015111;28;20026;-74
2021/09/27 01:10:24;;;;;;;8.98;5.53;;;17.40;95.80;;;;;;5029655;28;20037;-74
2021/09/27 01:12:56;;;;;;;10.13;5.50;;;17.40;95.80;;;;;;5014466;28;20053;-74
2021/09/27 01:15:49;;;;;;;9.65;5.55;;;17.40;95.70;;;;;;5014956;28;20093;-73
2021/09/27 01:18:46;;;;;;;8.93;5.35;;;17.40;95.70;;;;;;5013485;28;20034;-73
2021/09/27 01:21:20;;;;;;;9.60;5.45;;;17.30;95.70;;;;;;5013580;28;20030;-73
2021/09/27 01:24:19;;;;;;;11.27;5.05;;;17.30;95.70;;;;;;5014241;28;20033;-73
2021/09/27 01:27:10;;;;;;;11.07;5.80;;;17.30;95.70;;;;;;5012751;28;20421;-76
2021/09/27 01:29:59;;;;;;;9.60;5.78;;;17.30;95.70;;;;;;5014861;28;20026;-74
2021/09/27 01:32:32;;;;;;;8.60;5.45;;;17.30;95.70;;;;;;5013699;28;20033;-74
2021/09/27 01:35:16;;;;;;;9.68;6.10;;;17.20;95.70;;;;;;5013994;28;20029;-74
2021/09/27 01:37:45;;;;;;;11.45;5.40;;;17.20;95.70;;;;;;5013429;28;20552;-73
2021/09/27 01:40:23;;;;;;;9.80;5.40;;;17.20;95.80;;;;;;5014398;28;20121;-74
2021/09/27 01:43:05;;;;;;;8.77;4.88;;;17.20;95.80;;;;;;5013663;28;20070;-74
2021/09/27 01:45:42;;;;;;;9.85;5.38;;;17.20;95.80;;;;;;5013299;28;20053;-74
2021/09/27 01:48:16;;;;;;;10.07;5.60;;;17.20;95.80;;;;;;5014292;28;20018;-74
2021/09/27 01:50:58;;;;;;;8.48;5.05;;;17.10;95.70;;;;;;5014000;28;20037;-73
2021/09/27 01:53:47;;;;;;;8.57;5.25;;;17.20;95.80;;;;;;5014230;28;20145;-74
2021/09/27 01:56:17;;;;;;;9.52;5.93;;;17.20;95.80;;;;;;5028544;28;20033;-73
2021/09/27 01:58:55;;;;;;;9.77;5.67;;;17.10;95.80;;;;;;5013372;28;20386;-74
2021/09/27 02:01:38;;;;;;;9.57;5.97;;;17.10;95.80;;;;;;5014319;28;20272;-75
2021/09/27 02:04:20;;;;;;;9.68;5.65;;;17.10;95.80;;;;;;5013233;28;20099;-74
2021/09/27 02:06:49;;;;;;;11.45;5.45;;;17.10;95.80;;;;;;5013192;28;20026;-75
2021/09/27 02:09:26;;;;;;;9.23;5.65;;;17.10;95.80;;;;;;5029170;28;20065;-75
2021/09/27 02:12:00;;;;;;;11.02;6.00;;;17.00;95.80;;;;;;5013667;28;20026;-74
2021/09/27 02:14:40;;;;;;;10.52;5.35;;;17.00;95.80;;;;;;5012748;28;20030;-74
2021/09/27 02:17:24;;;;;;;9.43;5.63;;;17.00;95.80;;;;;;5013245;28;20508;-74
2021/09/27 02:19:49;;;;;;;10.05;5.43;;;17.00;95.80;;;;;;5013036;28;20033;-74
2021/09/27 02:22:33;;;;;;;9.60;5.68;;;17.00;95.80;;;;;;5012347;28;20121;-74
2021/09/27 02:25:10;;;;;;;11.15;6.07;;;17.00;95.80;;;;;;5012802;28;20030;-74
2021/09/27 02:27:36;;;;;;;11.85;6.30;;;16.90;95.70;;;;;;5013518;28;20018;-74
2021/09/27 02:30:04;;;;;;;9.55;5.55;;;16.90;96.00;;;;;;5012913;28;20033;-74
2021/09/27 02:33:07;;;;;;;8.07;5.22;;;16.90;95.70;;;;;;5028624;28;20488;-74
2021/09/27 02:36:14;;;;;;;9.93;5.78;;;16.90;95.80;;;;;;4993470;28;20345;-75
2021/09/27 02:38:51;;;;;;;7.80;5.45;;;16.90;95.80;;;;;;5010658;28;20112;-76
2021/09/27 02:41:29;;;;;;;9.95;5.90;;;16.90;95.80;;;;;;5011543;28;20038;-75
2021/09/27 02:43:55;;;;;;;9.82;5.90;;;16.90;95.80;;;;;;5010356;28;20588;-75
2021/09/27 02:46:22;;;;;;;9.60;5.20;;;16.80;95.70;;;;;;5010922;28;20080;-75
2021/09/27 02:49:07;;;;;;;10.23;5.85;;;16.80;95.80;;;;;;5010137;28;20033;-75
2021/09/27 02:51:33;;;;;;;10.68;5.40;;;16.80;95.80;;;;;;5010855;28;20025;-75
2021/09/27 02:53:58;;;;;;;11.68;5.40;;;16.80;95.80;;;;;;5010468;28;20414;-76
2021/09/27 02:56:47;;;;;;;8.60;5.55;;;16.80;95.80;;;;;;5010997;28;20045;-75
2021/09/27 02:59:29;;;;;;;10.07;5.45;;;16.80;95.80;;;;;;5010435;28;20033;-74
2021/09/27 03:02:03;;;;;;;9.57;5.47;;;16.80;95.80;;;;;;5010059;28;20492;-75
2021/09/27 03:04:47;;;;;;;9.65;6.03;;;16.70;95.80;;;;;;5010527;28;20025;-75
2021/09/27 03:07:35;;;;;;;11.80;6.28;;;16.70;95.80;;;;;;4994101;28;20038;-74
2021/09/27 03:10:13;;;;;;;8.65;5.07;;;16.70;95.80;;;;;;5011609;28;20458;-75
2021/09/27 03:13:09;;;;;;;10.45;5.53;;;16.70;95.80;;;;;;5013112;28;20033;-75
2021/09/27 03:15:53;;;;;;;8.77;5.05;;;16.70;95.80;;;;;;5012878;28;20028;-75
2021/09/27 03:18:55;;;;;;;9.23;5.30;;;16.70;95.80;;;;;;5012166;28;20036;-76
2021/09/27 03:21:37;;;;;;;9.88;5.43;;;16.70;95.80;;;;;;5012696;28;20038;-75
2021/09/27 03:24:15;;;;;;;9.32;5.13;;;16.70;95.70;;;;;;5027020;28;20026;-75
2021/09/27 03:27:19;;;;;;;8.38;5.25;;;16.60;95.70;;;;;;5012273;28;20029;-75
2021/09/27 03:30:02;;;;;;;9.73;5.35;;;16.70;95.80;;;;;;5011115;28;20422;-75
2021/09/27 03:32:28;;;;;;;8.10;4.88;;;16.60;95.70;;;;;;5012143;28;20026;-75
2021/09/27 03:35:07;;;;;;;10.65;6.35;;;16.60;95.70;;;;;;5011633;28;20649;-75
2021/09/27 03:37:48;;;;;;;7.78;4.93;;;16.60;95.80;;;;;;5012053;28;20085;-75
2021/09/27 03:40:14;;;;;;;10.90;5.57;;;16.60;95.70;;;;;;5010548;28;20497;-75
2021/09/27 03:43:04;;;;;;;9.23;5.05;;;16.60;95.80;;;;;;5011669;28;20025;-75
2021/09/27 03:46:01;;;;;;;10.20;5.80;;;16.60;95.80;;;;;;5012449;28;20026;-75
2021/09/27 03:48:47;;;;;;;9.57;5.90;;;16.60;95.80;;;;;;5012470;28;20101;-76
2021/09/27 03:51:21;;;;;;;9.75;5.40;;;16.50;96.00;;;;;;5011648;28;20042;-74
2021/09/27 03:54:07;;;;;;;9.43;5.32;;;16.50;95.70;;;;;;5011016;28;20045;-75
2021/09/27 03:56:54;;;;;;;9.88;5.70;;;16.50;95.80;;;;;;5012137;28;20026;-75
2021/09/27 03:59:42;;;;;;;10.32;5.32;;;16.50;95.80;;;;;;5027481;28;20471;-73
2021/09/27 04:02:20;;;;;;;10.70;5.32;;;16.50;95.80;;;;;;5008405;28;20474;-78
2021/09/27 04:04:57;;;;;;;10.05;5.38;;;16.50;95.70;;;;;;5009885;28;20168;-77
2021/09/27 04:07:29;;;;;;;10.90;5.80;;;16.50;95.70;;;;;;5010323;28;20029;-81
2021/09/27 04:10:04;;;;;;;11.27;5.80;;;16.60;95.60;;;;;;5024440;28;20037;-77
2021/09/27 04:12:57;;;;;;;9.05;5.65;;;16.60;95.60;;;;;;5008671;28;20117;-79
2021/09/27 04:15:41;;;;;;;13.02;6.55;;;16.70;95.50;;;;;;5009379;28;20026;-77
2021/09/27 04:18:32;;;;;;;11.05;6.82;;;16.70;95.40;;;;;;5009462;28;20142;-78
2021/09/27 04:21:12;;;;;;;12.63;7.07;;;16.80;95.40;;;;;;5023813;28;20060;-79
2021/09/27 04:23:38;;;;;;;12.35;6.70;;;16.80;95.30;;;;;;5010140;28;20029;-78
2021/09/27 04:26:40;;;;;;;12.60;6.55;;;16.80;95.20;;;;;;5008917;28;20033;-74
2021/09/27 04:29:39;;;;;;;11.60;6.07;;;16.90;95.50;;;;;;5029408;28;20079;-74
2021/09/27 04:32:08;;;;;;;10.02;5.88;;;16.90;95.20;;;;;;5029781;28;20049;-74
2021/09/27 04:34:47;;;;;;;10.77;5.78;;;16.90;95.10;;;;;;5030194;28;20061;-75
2021/09/27 04:37:17;;;;;;;9.68;6.03;;;17.00;95.20;;;;;;5029412;28;20500;-74
2021/09/27 04:39:45;;;;;;;10.10;5.32;;;17.00;95.20;;;;;;5031344;28;20037;-74
2021/09/27 04:42:25;;;;;;;10.13;5.82;;;17.00;95.10;;;;;;5029881;28;20438;-74
2021/09/27 04:44:53;;;;;;;9.80;5.65;;;17.00;95.20;;;;;;5031739;28;20021;-74
2021/09/27 04:47:48;;;;;;;10.88;6.00;;;17.10;95.20;;;;;;5029223;28;20053;-75
2021/09/27 04:50:30;;;;;;;10.98;5.97;;;17.10;95.20;;;;;;5030831;28;20065;-76
2021/09/27 04:53:23;;;;;;;10.25;6.13;;;17.10;95.20;;;;;;5030840;28;20025;-75
2021/09/27 04:56:13;;;;;;;14.07;5.85;;;17.20;95.20;;;;;;5031483;28;20079;-75
2021/09/27 04:58:47;;;;;;;11.40;6.35;;;17.20;95.20;;;;;;5031265;28;20041;-75
2021/09/27 05:01:32;;;;;;;9.93;5.63;;;17.20;95.20;;;;;;5030789;28;20060;-75
2021/09/27 05:04:18;;;;;;;12.05;5.75;;;17.20;95.30;;;;;;5029334;28;20477;-74
2021/09/27 05:07:15;;;;;;;11.10;5.90;;;17.20;95.30;;;;;;5031761;28;20029;-75
2021/09/27 05:10:26;;;;;;;12.02;6.47;;;17.20;95.40;;;;;;5033516;28;20021;-75
2021/09/27 05:13:21;;;;;;;13.90;6.40;;;17.20;95.40;;;;;;5033364;28;20044;-75
2021/09/27 05:15:58;;;;;;;10.20;6.40;;;17.20;95.40;;;;;;5034597;28;20267;-75
2021/09/27 05:18:51;;;;;;;11.25;6.43;;;17.20;95.40;;;;;;5033411;28;20025;-74
2021/09/27 05:21:47;;;;;;;11.45;6.43;;;17.20;95.40;;;;;;5034059;28;20456;-74
2021/09/27 05:24:31;;;;;;;10.98;5.90;;;17.20;95.50;;;;;;5032619;28;20496;-74
2021/09/27 05:27:35;;;;;;;10.32;5.75;;;17.10;95.50;;;;;;5034623;28;20040;-75
2021/09/27 05:30:17;;;;;;;10.20;5.50;;;17.10;95.60;;;;;;5032664;28;20025;-74
2021/09/27 05:33:00;;;;;;;11.65;6.50;;;17.10;95.70;;;;;;5036414;28;20505;-75
2021/09/27 05:35:34;;;;;;;12.32;6.57;;;17.00;95.70;;;;;;5034208;28;20405;-76
2021/09/27 05:38:28;;;;;;;14.45;6.53;;;17.00;95.70;;;;;;5033298;28;20049;-75
2021/09/27 05:41:23;;;;;;;13.73;6.35;;;17.10;95.80;;;;;;5034483;28;20079;-76
2021/09/27 05:44:17;;;;;;;11.43;5.03;;;17.10;95.70;;;;;;5032918;28;20021;-75
2021/09/27 05:47:04;;;;;;;11.02;5.63;;;17.10;95.70;;;;;;5033131;28;20029;-75
2021/09/27 05:49:45;;;;;;;11.25;5.88;;;17.00;95.70;;;;;;5034136;28;20037;-76
2021/09/27 05:52:28;;;;;;;10.57;5.65;;;17.10;95.80;;;;;;5033437;28;20025;-74
2021/09/27 05:55:06;;;;;;;11.85;6.38;;;17.10;95.70;;;;;;5032729;28;20052;-74
2021/09/27 05:57:44;;;;;;;9.70;6.18;;;17.10;95.80;;;;;;5032671;28;20022;-75
2021/09/27 06:00:26;;;;;;;9.40;5.75;;;17.10;95.80;;;;;;5033200;28;20079;-75
2021/09/27 06:03:12;;;;;;;11.27;5.75;;;17.10;95.80;;;;;;5033636;28;20026;-75
2021/09/27 06:05:48;;;;;;;10.57;5.38;;;17.20;95.70;;;;;;5033115;28;20037;-75
2021/09/27 06:08:16;;;;;;;13.27;6.63;;;17.20;95.70;;;;;;5031895;28;20083;-75
2021/09/27 06:11:08;;;;;;;10.95;6.15;;;17.20;95.60;;;;;;5033345;28;20029;-75
2021/09/27 06:13:37;;;;;;;11.23;5.95;;;17.20;95.60;;;;;;5033738;28;20514;-75
2021/09/27 06:16:21;;;;;;;10.77;5.93;;;17.30;95.60;;;;;;5031816;28;20021;-74
2021/09/27 06:19:04;;;;;;;9.95;5.60;;;17.30;95.60;;;;;;5032795;28;20525;-76
2021/09/27 06:22:02;;;;;;;11.00;5.90;;;17.30;95.50;;;;;;5032193;28;20029;-76
2021/09/27 06:25:00;;;;;;;12.52;6.03;;;17.40;95.60;;;;;;5033739;28;20029;-76
2021/09/27 06:27:36;;;;;;;10.88;6.28;;;17.40;95.60;;;;;;5032168;28;20076;-75
2021/09/27 06:30:02;;;;;;;11.85;6.78;;;17.40;95.50;;;;;;5032849;28;20374;-75
2021/09/27 06:32:34;;;;;;;10.38;5.47;;;17.40;95.50;;;;;;5033378;28;20147;-75
2021/09/27 06:35:07;;;;;;;10.38;6.30;;;17.40;95.50;;;;;;5033248;28;20036;-75
2021/09/27 06:37:34;;;;;;;12.05;6.15;;;17.40;95.50;;;;;;5031635;28;20077;-75
2021/09/27 06:40:05;;;;;;;11.70;6.03;;;17.40;95.50;;;;;;5033023;28;20052;-76
2021/09/27 06:42:31;;;;;;;10.43;6.22;;;17.50;95.50;;;;;;5033149;28;20036;-75
2021/09/27 06:44:57;;;;;;;11.82;6.57;;;17.50;95.50;;;;;;5033104;28;20033;-75
2021/09/27 06:47:23;;;;;;;11.90;6.05;;;17.50;95.40;;;;;;5032007;28;20478;-75
2021/09/27 06:49:49;;;;;;;11.35;6.32;;;17.50;95.40;;;;;;5031651;28;20111;-77
2021/09/27 06:52:15;;;;;;;10.93;6.18;;;17.60;95.40;;;;;;5031993;28;20155;-76
2021/09/27 06:54:41;;;;;;;12.25;6.38;;;17.60;95.40;;;;;;5031626;28;20063;-75
2021/09/27 06:57:07;;;;;;;13.85;6.35;;;17.60;95.40;;;;;;5030965;28;20025;-74
2021/09/27 06:59:33;;;;;;;8.68;5.30;;;17.70;95.40;;;;;;5032707;28;20037;-75
2021/09/27 07:01:59;;;;;;;9.98;5.85;;;17.70;95.30;;;;;;5032501;28;20057;-75
2021/09/27 07:04:24;;;;;;;9.48;4.97;;;17.80;95.30;;;;;;5030604;28;20139;-75
2021/09/27 07:06:50;;;;;;;12.25;6.70;;;17.80;95.20;;;;;;5032779;28;20394;-75
2021/09/27 07:09:16;;;;;;;13.23;7.35;;;17.80;95.30;;;;;;5031741;28;20036;-75
2021/09/27 07:11:42;;;;;;;12.98;7.25;;;17.70;95.30;;;;;;5032241;28;20029;-75
2021/09/27 07:14:09;;;;;;;11.63;6.60;;;17.70;95.30;;;;;;5030509;28;20377;-75
2021/09/27 07:16:36;;;;;;;13.90;6.75;;;17.80;95.60;;;;;;5032696;28;20022;-75
2021/09/27 07:19:03;;;;;;;11.80;6.72;;;17.80;95.30;;;;;;5031237;28;20095;-75
2021/09/27 07:21:29;;;;;;;10.35;6.28;;;17.80;95.30;;;;;;5031655;28;20040;-75
2021/09/27 07:23:55;;;;;;;12.80;6.18;;;17.90;95.30;;;;;;5032369;28;20025;-77
2021/09/27 07:26:20;;;;;;;11.90;6.00;;;17.90;95.30;;;;;;5031620;28;20048;-74
2021/09/27 07:28:52;;;;;;;11.20;6.38;;;17.90;95.20;;;;;;5031956;28;20109;-75
2021/09/27 07:31:20;;;;;;;11.60;5.40;;;17.90;95.30;;;;;;5031477;28;20414;-74
2021/09/27 07:33:46;;;;;;;11.55;6.30;;;18.00;95.20;;;;;;5032279;28;20021;-74
2021/09/27 07:36:12;;;;;;;11.63;6.43;;;18.00;95.30;;;;;;5031444;28;20021;-74
2021/09/27 07:38:37;;;;;;;9.48;5.55;;;18.10;95.30;;;;;;5031924;28;20057;-75
2021/09/27 07:41:03;;;;;;;11.80;6.07;;;18.20;95.20;;;;;;5032213;28;20044;-75
2021/09/27 07:43:30;;;;;;;11.65;6.30;;;18.30;95.10;;;;;;5030267;28;20520;-75
2021/09/27 07:45:55;;;;;;;13.55;6.78;;;18.30;95.00;;;;;;5030785;28;20025;-75
2021/09/27 07:48:21;;;;;;;10.45;6.22;;;18.40;94.90;;;;;;5030145;28;20017;-75
2021/09/27 07:50:51;;;;;;;11.30;6.13;;;18.50;94.90;;;;;;5032073;28;20033;-75
2021/09/27 07:53:17;;;;;;;10.07;6.25;;;18.50;94.90;;;;;;5030365;28;20326;-74
2021/09/27 07:55:44;;;;;;;11.05;6.35;;;18.50;94.90;;;;;;5033438;28;20021;-77
2021/09/27 07:58:10;;;;;;;12.45;5.78;;;18.60;94.90;;;;;;5031389;28;20032;-74
2021/09/27 08:00:36;;;;;;;12.10;6.93;;;18.60;94.80;;;;;;5030502;28;20470;-74
2021/09/27 08:03:03;;;;;;;13.02;6.57;;;18.70;94.80;;;;;;5032130;28;20113;-74
2021/09/27 08:05:30;;;;;;;14.82;6.78;;;18.70;94.70;;;;;;5031241;28;20044;-75
2021/09/27 08:07:57;;;;;;;11.65;6.97;;;18.70;94.70;;;;;;5030409;28;20065;-75
2021/09/27 08:10:26;;;;;;;10.68;6.30;;;18.80;94.70;;;;;;5031258;28;20029;-75
2021/09/27 08:12:52;;;;;;;10.77;6.45;;;18.90;94.70;;;;;;5031993;28;20021;-75
2021/09/27 08:15:21;;;;;;;11.15;5.88;;;18.90;94.60;;;;;;5030905;28;20022;-76
2021/09/27 08:17:49;;;;;;;12.27;7.25;;;18.90;94.60;;;;;;5031878;28;20029;-75
2021/09/27 08:20:17;;;;;;;14.57;7.32;;;19.00;94.50;;;;;;5030086;28;20037;-75
2021/09/27 08:22:44;;;;;;;12.63;6.80;;;19.00;94.60;;;;;;5030353;28;20033;-75
2021/09/27 08:25:11;;;;;;;12.05;6.60;;;19.10;94.50;;;;;;5030066;28;20021;-75
2021/09/27 08:27:37;;;;;;;12.02;6.57;;;19.10;94.40;;;;;;5031919;28;20370;-75
2021/09/27 08:30:08;;;;;;;13.88;7.40;;;19.20;94.40;;;;;;5031748;28;20112;-75
2021/09/27 08:32:35;;;;;;;12.18;6.93;;;19.30;94.40;;;;;;5030962;28;20133;-75
2021/09/27 08:35:01;;;;;;;12.30;6.82;;;19.30;94.30;;;;;;5031855;28;20032;-75
2021/09/27 08:37:26;;;;;;;12.60;6.93;;;19.50;94.20;;;;;;5031001;28;20469;-75
2021/09/27 08:39:52;;;;;;;12.18;6.70;;;19.50;94.10;;;;;;5031147;28;20049;-75
2021/09/27 08:42:28;;;;;;;10.13;5.75;;;19.60;94.10;;;;;;5034205;28;20017;-75
2021/09/27 08:45:23;;;;;;;10.55;6.38;;;19.60;94.00;;;;;;5035487;28;20029;-74
2021/09/27 08:47:58;;;;;;;11.20;6.35;;;19.60;94.00;;;;;;5035012;28;20034;-77
2021/09/27 08:50:30;;;;;;;11.68;6.53;;;19.60;94.00;;;;;;5034579;28;20026;-77
2021/09/27 08:52:57;;;;;;;10.85;5.97;;;19.60;94.00;;;;;;5035237;28;20014;-75
2021/09/27 08:55:23;;;;;;;9.57;5.43;;;19.60;94.00;;;;;;5033392;28;20075;-74
2021/09/27 08:58:09;;;;;;;9.70;5.50;;;19.60;94.10;;;;;;5035178;28;20022;-75
2021/09/27 09:00:40;;;;;;;11.38;5.80;;;19.60;94.10;;;;;;5033120;28;20103;-74
2021/09/27 09:03:21;;;;;;;9.93;6.05;;;19.60;94.00;;;;;;5034965;28;20029;-75
2021/09/27 09:06:14;;;;;;;8.35;5.22;;;19.70;94.00;;;;;;5035030;28;20013;-75
2021/09/27 09:08:44;;;;;;;10.50;5.63;;;19.70;93.80;;;;;;5035084;28;20025;-77
2021/09/27 09:11:28;;;;;;;9.57;5.85;;;19.70;93.80;;;;;;5034998;28;20026;-76
2021/09/27 09:14:28;;;;;;;10.20;6.22;;;19.70;93.70;;;;;;5033492;28;20028;-75
2021/09/27 09:16:54;;;;;;;12.32;5.95;;;19.80;93.80;;;;;;5034973;28;20052;-75
2021/09/27 09:19:25;;;;;;;7.82;4.05;;;19.80;93.80;;;;;;5032810;28;20374;-74
2021/09/27 09:21:57;;;;;;;11.63;6.10;;;19.70;93.70;;;;;;5034882;28;20138;-76
2021/09/27 09:24:32;;;;;;;11.23;6.20;;;19.70;93.70;;;;;;5032934;28;20172;-75
2021/09/27 09:27:02;;;;;;;10.40;5.60;;;19.70;93.70;;;;;;5034557;28;20094;-76
2021/09/27 09:29:32;;;;;;;8.55;5.50;;;19.80;93.70;;;;;;5032778;28;20130;-78
2021/09/27 09:32:20;;;;;;;8.80;5.25;;;19.90;93.60;;;;;;5034534;28;20044;-78
2021/09/27 09:34:48;;;;;;;9.85;6.00;;;20.00;93.50;;;;;;5032380;28;20146;-76
2021/09/27 09:37:20;;;;;;;13.02;5.90;;;20.00;93.40;;;;;;5034500;28;20032;-77
2021/09/27 09:40:04;;;;;;;11.90;6.32;;;20.00;93.30;;;;;;5032559;28;20533;-76
2021/09/27 09:42:34;;;;;;;12.02;6.32;;;20.00;93.40;;;;;;5032465;28;20021;-75
2021/09/27 09:45:14;;;;;;;11.35;6.30;;;20.00;93.30;;;;;;5033228;28;20152;-76
2021/09/27 09:47:39;;;;;;;8.20;5.22;;;20.10;93.20;;;;;;5033733;28;20029;-77
2021/09/27 09:50:25;;;;;;;9.77;5.55;;;20.20;93.00;;;;;;5034175;28;20026;-76
2021/09/27 09:52:54;;;;;;;11.60;5.95;;;20.30;93.00;;;;;;5033277;28;20492;-77
2021/09/27 09:55:28;;;;;;;10.65;5.90;;;20.40;92.90;;;;;;5032206;28;20021;-75
2021/09/27 09:58:08;;;;;;;11.02;6.20;;;20.40;92.80;;;;;;5032970;28;20028;-76
2021/09/27 10:00:35;;;;;;;10.40;5.10;;;20.50;92.70;;;;;;5033428;28;20112;-76
2021/09/27 10:03:02;;;;;;;8.30;4.93;;;20.60;92.60;;;;;;5034027;28;20473;-76
2021/09/27 10:05:51;;;;;;;9.95;5.75;;;20.60;92.50;;;;;;5033258;28;20032;-78
2021/09/27 10:08:24;;;;;;;8.88;4.63;;;20.60;92.50;;;;;;5033434;28;20068;-77
2021/09/27 10:11:10;;;;;;;9.05;4.88;;;20.70;92.40;;;;;;5032819;28;20075;-76
2021/09/27 10:13:54;;;;;;;9.75;5.60;;;20.80;92.20;;;;;;5032412;28;20021;-75
2021/09/27 10:16:32;;;;;;;7.70;4.40;;;20.80;92.10;;;;;;5033658;28;20071;-74
2021/09/27 10:19:50;;;;;;;9.02;4.65;;;20.90;92.10;;;;;;5035080;28;20033;-76
2021/09/27 10:22:23;;;;;;;7.80;4.82;;;21.00;91.90;;;;;;4999841;28;20132;-76
2021/09/27 10:24:52;;;;;;;6.47;3.20;;;21.00;91.80;;;;;;5033716;28;20017;-76
2021/09/27 10:27:41;;;;;;;7.15;4.38;;;21.00;91.80;;;;;;5033709;28;20071;-76
2021/09/27 10:30:20;;;;;;;9.25;4.82;;;20.90;91.80;;;;;;5033397;28;20029;-77
2021/09/27 10:32:50;;;;;;;7.55;4.00;;;20.80;91.90;;;;;;5032276;28;20094;-77
2021/09/27 10:35:25;;;;;;;7.90;4.60;;;20.70;92.00;;;;;;5032297;28;20116;-77
2021/09/27 10:37:58;;;;;;;8.18;4.03;;;20.70;92.00;;;;;;5031653;28;20091;-76
2021/09/27 10:40:24;;;;;;;6.40;3.67;;;20.70;91.90;;;;;;5032667;28;20036;-76
2021/09/27 10:42:51;;;;;;;5.85;3.55;;;20.70;92.00;;;;;;5032919;28;20018;-77
2021/09/27 10:45:20;;;;;;;6.78;3.85;;;20.60;91.80;;;;;;5031846;28;20485;-75
2021/09/27 10:47:51;;;;;;;5.90;3.38;;;20.60;92.00;;;;;;5033420;28;20032;-77
2021/09/27 10:50:27;;;;;;;5.03;3.33;;;20.50;91.90;;;;;;5033151;28;20040;-77
2021/09/27 10:52:53;;;;;;;7.07;3.40;;;20.50;92.00;;;;;;5033007;28;20018;-77
2021/09/27 10:55:36;;;;;;;5.82;3.17;;;20.40;92.10;;;;;;5032966;28;20067;-78
2021/09/27 10:58:09;;;;;;;4.85;3.22;;;20.40;92.10;;;;;;5031708;28;20120;-76
2021/09/27 11:00:48;;;;;;;5.13;3.30;;;20.50;92.10;;;;;;5031870;28;20034;-76
2021/09/27 11:03:31;;;;;;;7.95;3.17;;;20.50;92.00;;;;;;5032926;28;20017;-76
2021/09/27 11:06:18;;;;;;;5.20;2.85;;;20.50;92.00;;;;;;5032593;28;20032;-76
2021/09/27 11:08:46;;;;;;;8.40;3.75;;;20.60;91.90;;;;;;5032211;28;20025;-77
2021/09/27 11:11:22;;;;;;;6.45;2.95;;;20.50;91.80;;;;;;5032784;28;20112;-76
2021/09/27 11:13:48;;;;;;;4.53;2.92;;;20.60;91.80;;;;;;5031498;28;20025;-76
2021/09/27 11:16:35;;;;;;;7.53;3.25;;;20.60;91.80;;;;;;5031277;28;20369;-77
2021/09/27 11:19:06;;;;;;;5.50;2.60;;;20.70;91.80;;;;;;5031303;28;20322;-77
2021/09/27 11:21:35;;;;;;;5.40;3.30;;;20.70;91.70;;;;;;5030497;28;20029;-77
2021/09/27 11:24:40;;;;;;;6.88;3.22;;;20.80;91.70;;;;;;5031231;28;20116;-77
2021/09/27 11:27:09;;;;;;;4.82;2.63;;;20.80;91.70;;;;;;5032426;28;20470;-76
2021/09/27 11:29:35;;;;;;;6.68;3.08;;;20.80;91.70;;;;;;5030557;28;20036;-77
2021/09/27 11:32:25;;;;;;;6.35;3.60;;;20.80;91.60;;;;;;5032384;28;20025;-76
2021/09/27 11:35:03;;;;;;;5.03;2.92;;;20.80;91.60;;;;;;5031184;28;20032;-77
2021/09/27 11:37:48;;;;;;;7.38;3.20;;;20.80;91.60;;;;;;5031637;28;20033;-76
2021/09/27 11:40:36;;;;;;;4.13;2.40;;;20.80;91.60;;;;;;5031673;28;20046;-76
2021/09/27 11:43:26;;;;;;;4.22;2.72;;;20.90;91.50;;;;;;5031970;28;20103;-77
2021/09/27 11:46:05;;;;;;;11.80;3.80;;;21.00;91.40;;;;;;5032261;28;20104;-77
2021/09/27 11:48:34;;;;;;;5.40;2.80;;;21.10;91.30;;;;;;5031657;28;20264;-77
2021/09/27 11:51:17;;;;;;;4.53;2.25;;;21.10;91.20;;;;;;5030771;28;20446;-77
2021/09/27 11:54:05;;;;;;;4.53;2.63;;;21.20;91.10;;;;;;5031530;28;20030;-76
2021/09/27 11:56:43;;;;;;;4.28;2.70;;;21.30;91.00;;;;;;5031375;28;20021;-77
2021/09/27 11:59:30;;;;;;;5.60;2.80;;;21.30;90.90;;;;;;5031800;28;20033;-75
2021/09/27 12:02:08;;;;;;;4.05;2.30;;;21.30;90.80;;;;;;5031895;28;20021;-76
2021/09/27 12:05:10;;;;;;;3.40;1.98;;;21.30;90.70;;;;;;5031222;28;20105;-76
2021/09/27 12:08:03;;;;;;;5.75;2.08;;;21.30;90.60;;;;;;5031427;28;20151;-75
2021/09/27 12:10:53;;;;;;;4.32;2.40;;;21.30;90.50;;;;;;5029411;28;20152;-76
2021/09/27 12:13:22;;;;;;;3.67;2.05;;;21.30;90.40;;;;;;5030860;28;20048;-76
2021/09/27 12:15:59;;;;;;;4.72;1.80;;;21.30;90.30;;;;;;5031705;28;20040;-77
2021/09/27 12:18:46;;;;;;;3.45;2.10;;;21.30;90.20;;;;;;5034766;28;20026;-76
2021/09/27 12:21:20;;;;;;;3.88;2.00;;;21.30;90.10;;;;;;5035935;28;20042;-77
2021/09/27 12:23:57;;;;;;;2.85;1.83;;;21.20;90.00;;;;;;5035228;28;20025;-76
2021/09/27 12:26:30;;;;;;;3.72;1.70;;;21.20;90.00;;;;;;5035768;28;20033;-76
2021/09/27 12:29:15;;;;;;;2.63;1.77;;;21.20;89.70;;;;;;5034385;28;20017;-76
2021/09/27 12:31:55;;;;;;;3.30;2.25;;;21.20;89.70;;;;;;5035012;28;20021;-77
2021/09/27 12:34:32;;;;;;;1.83;1.30;;;21.20;89.40;;;;;;5034747;28;20029;-76
2021/09/27 12:36:58;;;;;;;3.92;1.88;;;21.20;89.40;;;;;;5034735;28;20053;-76
2021/09/27 12:39:27;;;;;;;3.53;1.70;;;21.30;88.90;;;;;;5036604;28;20485;-77
2021/09/27 12:41:54;;;;;;;2.72;1.67;;;21.30;88.10;;;;;;5036511;28;20053;-77
2021/09/27 12:44:28;;;;;;;2.83;1.50;;;21.40;88.00;;;;;;5036009;28;20029;-77
2021/09/27 12:46:56;;;;;;;5.38;1.98;;;21.40;87.60;;;;;;5034146;28;20029;-76
2021/09/27 12:49:56;;;;;;;3.40;1.77;;;21.50;87.50;;;;;;5035402;28;20026;-76
2021/09/27 12:52:36;;;;;;;3.55;1.63;;;21.60;87.10;;;;;;5033965;28;20060;-78
2021/09/27 12:55:07;;;;;;;3.00;1.57;;;21.70;86.90;;;;;;5035513;28;20094;-76
2021/09/27 12:57:48;;;;;;;3.97;1.65;;;21.70;86.70;;;;;;5050048;28;20636;-77
2021/09/27 13:00:31;;;;;;;2.83;1.65;;;21.70;86.50;;;;;;5035372;28;20032;-77
2021/09/27 13:02:59;;;;;;;2.78;1.63;;;21.70;86.70;;;;;;5035225;28;20025;-75
2021/09/27 13:05:27;;;;;;;3.30;1.70;;;21.70;86.80;;;;;;5033748;28;20025;-75
2021/09/27 13:07:59;;;;;;;3.22;1.67;;;21.60;86.90;;;;;;5033107;28;20025;-76
2021/09/27 13:10:27;;;;;;;3.92;1.83;;;21.60;87.20;;;;;;5033817;28;20030;-75
2021/09/27 13:13:15;;;;;;;3.20;1.90;;;21.60;87.40;;;;;;5034309;28;20017;-76
2021/09/27 13:15:54;;;;;;;3.72;1.95;;;21.60;87.40;;;;;;5034289;28;20022;-76
2021/09/27 13:18:32;;;;;;;3.35;1.88;;;21.50;87.50;;;;;;5033652;28;20059;-76
2021/09/27 13:21:20;;;;;;;4.53;1.60;;;21.50;87.70;;;;;;5034786;28;20041;-76
2021/09/27 13:24:03;;;;;;;4.72;1.45;;;21.40;87.80;;;;;;5034166;28;20022;-76
2021/09/27 13:26:49;;;;;;;3.90;1.67;;;21.40;88.10;;;;;;5033221;28;20033;-78
2021/09/27 13:29:26;;;;;;;2.65;1.60;;;21.30;88.30;;;;;;5034293;28;20026;-76